createdAt,value
2023-08-11T00:00:09.949Z,100392.84
2023-08-11T00:02:39.546Z,100398.47
2023-08-11T00:05:09.566Z,100402.56
2023-08-11T00:07:37.136Z,100392.56
2023-08-11T00:10:06.294Z,100388.94
2023-08-11T00:12:34.207Z,100392.06
2023-08-11T00:15:01.912Z,100394.66
2023-08-11T00:17:30.997Z,100390.56
2023-08-11T00:19:58.958Z,100397.91
2023-08-11T00:22:26.441Z,100399.16
2023-08-11T00:24:53.970Z,100390.19
2023-08-11T00:27:21.896Z,100394.09
2023-08-11T00:29:49.380Z,100395.00
2023-08-11T00:32:16.918Z,100396.84
2023-08-11T00:34:44.881Z,100394.94
2023-08-11T00:37:12.357Z,100391.97
2023-08-11T00:39:39.997Z,100402.53
2023-08-11T00:42:07.862Z,100400.22
2023-08-11T00:44:35.354Z,100398.53
2023-08-11T00:47:03.650Z,100391.28
2023-08-11T00:49:31.500Z,100384.62
2023-08-11T00:51:59.045Z,100385.25
2023-08-11T00:54:27.862Z,100386.41
2023-08-11T00:56:56.199Z,100386.78
2023-08-11T00:59:24.370Z,100379.37
2023-08-11T01:01:51.885Z,100388.53
2023-08-11T01:04:21.207Z,100389.06
2023-08-11T01:06:52.773Z,100382.81
2023-08-11T01:09:36.940Z,100386.37
2023-08-11T01:12:33.875Z,100376.03
2023-08-11T01:15:18.320Z,100378.41
2023-08-11T01:17:46.703Z,100379.34
2023-08-11T01:20:17.388Z,100370.22
2023-08-11T01:22:48.138Z,100371.94
2023-08-11T01:25:16.301Z,100364.19
2023-08-11T01:27:45.812Z,100369.19
2023-08-11T01:30:13.846Z,100364.03
2023-08-11T01:32:41.973Z,100368.91
2023-08-11T01:35:10.831Z,100368.81
2023-08-11T01:37:38.364Z,100379.28
2023-08-11T01:40:12.755Z,100372.72
2023-08-11T01:42:46.818Z,100373.59
2023-08-11T01:45:23.156Z,100380.63
2023-08-11T01:47:51.152Z,100376.16
2023-08-11T01:50:19.459Z,100372.59
2023-08-11T01:52:48.789Z,100376.50
2023-08-11T01:55:30.879Z,100368.25
2023-08-11T01:58:00.496Z,100373.75
2023-08-11T02:00:29.548Z,100378.06
2023-08-11T02:02:59.675Z,100375.28
2023-08-11T02:05:28.349Z,100378.91
2023-08-11T02:07:56.992Z,100386.13
2023-08-11T02:10:25.194Z,100388.63
2023-08-11T02:12:52.681Z,100391.44
2023-08-11T02:15:20.333Z,100392.22
2023-08-11T02:17:50.049Z,100384.69
2023-08-11T02:20:24.720Z,100380.22
2023-08-11T02:22:53.903Z,100384.56
2023-08-11T02:25:23.628Z,100387.25
2023-08-11T02:27:51.671Z,100383.94
2023-08-11T02:30:20.131Z,100387.19
2023-08-11T02:32:47.937Z,100381.00
2023-08-11T02:35:18.742Z,100387.44
2023-08-11T02:37:47.084Z,100389.84
2023-08-11T02:40:15.865Z,100387.50
2023-08-11T02:42:46.646Z,100387.13
2023-08-11T02:45:14.998Z,100388.66
2023-08-11T02:47:43.531Z,100390.44
2023-08-11T02:50:12.026Z,100391.94
2023-08-11T02:52:40.207Z,100391.59
2023-08-11T02:55:08.934Z,100390.22
2023-08-11T02:57:36.841Z,100390.75
2023-08-11T03:00:13.359Z,100391.50
2023-08-11T03:02:42.425Z,100392.84
2023-08-11T03:05:11.414Z,100397.03
2023-08-11T03:07:39.745Z,100401.62
2023-08-11T03:10:08.248Z,100399.28
2023-08-11T03:12:37.281Z,100403.66
2023-08-11T03:15:06.659Z,100407.22
2023-08-11T03:17:36.657Z,100414.13
2023-08-11T03:20:14.076Z,100405.53
2023-08-11T03:22:43.676Z,100402.19
2023-08-11T03:25:12.952Z,100410.59
2023-08-11T03:27:43.217Z,100410.94
2023-08-11T03:30:12.423Z,100402.78
2023-08-11T03:32:41.271Z,100411.19
2023-08-11T03:35:09.564Z,100419.53
2023-08-11T03:37:39.016Z,100419.87
2023-08-11T03:40:10.482Z,100410.69
2023-08-11T03:42:38.767Z,100416.28
2023-08-11T03:45:06.805Z,100412.50
2023-08-11T03:47:35.224Z,100411.44
2023-08-11T03:50:04.122Z,100413.00
2023-08-11T03:52:31.754Z,100413.13
2023-08-11T03:54:59.244Z,100418.84
2023-08-11T03:57:27.561Z,100427.63
2023-08-11T03:59:55.360Z,100421.06
2023-08-11T04:02:23.418Z,100424.59
2023-08-11T04:04:51.222Z,100427.88
2023-08-11T04:07:18.707Z,100428.81
2023-08-11T04:09:47.809Z,100427.72
2023-08-11T04:12:15.662Z,100429.66
2023-08-11T04:14:43.112Z,100431.56
2023-08-11T04:17:14.814Z,100437.75
2023-08-11T04:19:42.940Z,100439.28
2023-08-11T04:22:10.629Z,100443.66
2023-08-11T04:24:38.662Z,100444.59
2023-08-11T04:27:06.674Z,100448.81
2023-08-11T04:29:34.253Z,100442.00
2023-08-11T04:32:05.700Z,100448.81
2023-08-11T04:34:34.397Z,100438.53
2023-08-11T04:37:06.529Z,100447.06
2023-08-11T04:39:38.068Z,100444.78
2023-08-11T04:42:06.743Z,100442.75
2023-08-11T04:44:35.334Z,100445.81
2023-08-11T04:47:03.085Z,100445.25
2023-08-11T04:49:30.697Z,100453.47
2023-08-11T04:51:59.374Z,100455.59
2023-08-11T04:54:28.515Z,100460.72
2023-08-11T04:56:56.606Z,100464.94
2023-08-11T04:59:24.404Z,100461.47
2023-08-11T05:01:52.011Z,100456.34
2023-08-11T05:04:19.626Z,100457.09
2023-08-11T05:06:47.674Z,100466.09
2023-08-11T05:09:15.239Z,100462.69
2023-08-11T05:11:42.733Z,100472.13
2023-08-11T05:14:10.626Z,100467.50
2023-08-11T05:16:38.270Z,100477.34
2023-08-11T05:19:06.405Z,100477.63
2023-08-11T05:21:34.235Z,100477.16
2023-08-11T05:24:01.724Z,100477.50
2023-08-11T05:26:29.599Z,100482.22
2023-08-11T05:28:57.570Z,100484.97
2023-08-11T05:31:25.597Z,100481.31
2023-08-11T05:33:53.483Z,100483.38
2023-08-11T05:36:21.395Z,100486.78
2023-08-11T05:38:48.861Z,100486.78
2023-08-11T05:41:16.442Z,100488.59
2023-08-11T05:43:44.332Z,100488.91
2023-08-11T05:46:12.434Z,100487.31
2023-08-11T05:48:40.118Z,100476.28
2023-08-11T05:51:08.052Z,100477.34
2023-08-11T05:53:35.715Z,100471.47
2023-08-11T05:56:03.337Z,100475.75
2023-08-11T05:58:31.110Z,100475.91
2023-08-11T06:00:58.756Z,100483.06
2023-08-11T06:03:31.443Z,100478.78
2023-08-11T06:06:08.211Z,100487.72
2023-08-11T06:08:36.349Z,100483.84
2023-08-11T06:11:04.413Z,100483.59
2023-08-11T06:13:33.283Z,100488.44
2023-08-11T06:16:08.177Z,100489.38
2023-08-11T06:18:51.760Z,100491.00
2023-08-11T06:21:20.706Z,100489.16
2023-08-11T06:23:48.612Z,100489.13
2023-08-11T06:26:16.397Z,100486.72
2023-08-11T06:28:44.439Z,100484.13
2023-08-11T06:31:12.118Z,100487.94
2023-08-11T06:33:41.804Z,100486.97
2023-08-11T06:36:09.978Z,100496.25
2023-08-11T06:38:54.825Z,100492.94
2023-08-11T06:41:26.116Z,100493.75
2023-08-11T06:43:55.543Z,100490.31
2023-08-11T06:46:25.953Z,100496.44
2023-08-11T06:48:54.375Z,100492.00
2023-08-11T06:51:22.110Z,100501.50
2023-08-11T06:53:49.742Z,100492.19
2023-08-11T06:56:17.855Z,100496.97
2023-08-11T06:59:19.563Z,100500.19
2023-08-11T07:01:50.162Z,100501.84
2023-08-11T07:04:17.763Z,100505.47
2023-08-11T07:06:47.662Z,100502.03
2023-08-11T07:09:15.566Z,100508.00
2023-08-11T07:11:43.625Z,100502.81
2023-08-11T07:14:11.297Z,100503.94
2023-08-11T07:16:39.763Z,100501.22
2023-08-11T07:19:07.501Z,100504.87
2023-08-11T07:21:34.988Z,100496.72
2023-08-11T07:24:03.496Z,100496.19
2023-08-11T07:26:31.384Z,100504.09
2023-08-11T07:28:59.137Z,100509.50
2023-08-11T07:31:27.429Z,100499.84
2023-08-11T07:33:55.009Z,100499.66
2023-08-11T07:36:22.653Z,100499.69
2023-08-11T07:38:50.724Z,100504.56
2023-08-11T07:41:18.371Z,100491.91
2023-08-11T07:43:50.702Z,100498.88
2023-08-11T07:46:18.570Z,100497.28
2023-08-11T07:48:46.156Z,100500.25
2023-08-11T07:51:15.529Z,100497.09
2023-08-11T07:53:45.647Z,100504.47
2023-08-11T07:56:13.864Z,100501.97
2023-08-11T07:58:41.858Z,100509.62
2023-08-11T08:01:12.202Z,100505.47
2023-08-11T08:03:42.011Z,100511.78
2023-08-11T08:06:10.378Z,100504.06
2023-08-11T08:08:38.066Z,100503.09
2023-08-11T08:11:05.836Z,100499.00
2023-08-11T08:13:33.435Z,100508.06
2023-08-11T08:16:01.055Z,100509.56
2023-08-11T08:18:29.069Z,100510.44
2023-08-11T08:20:56.812Z,100511.56
2023-08-11T08:23:24.385Z,100518.41
2023-08-11T08:25:52.407Z,100514.38
2023-08-11T08:28:21.866Z,100518.97
2023-08-11T08:30:49.611Z,100517.56
2023-08-11T08:33:17.666Z,100505.16
2023-08-11T08:35:45.566Z,100506.69
2023-08-11T08:38:13.047Z,100509.16
2023-08-11T08:40:40.994Z,100507.22
2023-08-11T08:43:10.059Z,100514.25
2023-08-11T08:45:38.744Z,100510.22
2023-08-11T08:48:10.855Z,100508.88
2023-08-11T08:50:39.369Z,100503.34
2023-08-11T08:53:07.310Z,100514.38
2023-08-11T08:55:34.918Z,100517.22
2023-08-11T08:58:02.757Z,100515.97
2023-08-11T09:00:32.057Z,100508.91
2023-08-11T09:03:01.788Z,100507.59
2023-08-11T09:05:29.190Z,100509.44
2023-08-11T09:07:56.696Z,100509.41
2023-08-11T09:10:26.119Z,100500.12
2023-08-11T09:12:54.021Z,100507.66
2023-08-11T09:15:22.693Z,100510.41
2023-08-11T09:17:51.806Z,100505.53
2023-08-11T09:20:20.824Z,100511.81
2023-08-11T09:22:50.531Z,100515.03
2023-08-11T09:25:18.048Z,100508.50
2023-08-11T09:27:50.572Z,100501.25
2023-08-11T09:30:18.875Z,100499.13
2023-08-11T09:32:50.512Z,100502.81
2023-08-11T09:35:24.576Z,100504.00
2023-08-11T09:37:54.461Z,100500.09
2023-08-11T09:40:23.210Z,100506.62
2023-08-11T09:42:56.418Z,100497.09
2023-08-11T09:45:25.239Z,100497.81
2023-08-11T09:47:52.782Z,100483.63
2023-08-11T09:50:21.555Z,100491.06
2023-08-11T09:52:49.551Z,100482.16
2023-08-11T09:55:17.435Z,100485.13
2023-08-11T09:57:45.352Z,100493.97
2023-08-11T10:00:14.252Z,100488.72
2023-08-11T10:02:48.023Z,100497.22
2023-08-11T10:05:16.987Z,100492.66
2023-08-11T10:07:46.242Z,100485.38
2023-08-11T10:10:16.100Z,100495.53
2023-08-11T10:12:49.679Z,100494.78
2023-08-11T10:15:21.329Z,100493.41
2023-08-11T10:17:49.508Z,100493.38
2023-08-11T10:20:18.061Z,100484.03
2023-08-11T10:22:46.044Z,100484.78
2023-08-11T10:25:22.394Z,100480.56
2023-08-11T10:27:50.953Z,100485.66
2023-08-11T10:30:19.307Z,100478.69
2023-08-11T10:32:46.917Z,100479.19
2023-08-11T10:35:26.645Z,100483.81
2023-08-11T10:37:58.183Z,100491.56
2023-08-11T10:40:35.120Z,100481.16
2023-08-11T10:43:04.445Z,100478.59
2023-08-11T10:45:34.260Z,100467.84
2023-08-11T10:48:09.473Z,100468.84
2023-08-11T10:50:39.199Z,100467.47
2023-08-11T10:53:08.784Z,100464.94
2023-08-11T10:55:37.257Z,100459.81
2023-08-11T10:58:12.652Z,100462.75
2023-08-11T11:00:41.588Z,100472.47
2023-08-11T11:03:10.353Z,100462.06
2023-08-11T11:05:37.989Z,100462.06
2023-08-11T11:08:05.508Z,100464.13
2023-08-11T11:10:48.572Z,100459.53
2023-08-11T11:13:18.424Z,100453.75
2023-08-11T11:15:46.527Z,100454.75
2023-08-11T11:18:14.130Z,100444.56
2023-08-11T11:20:41.715Z,100451.78
2023-08-11T11:23:09.676Z,100452.75
2023-08-11T11:25:37.211Z,100457.16
2023-08-11T11:28:04.991Z,100449.72
2023-08-11T11:30:33.710Z,100451.22
2023-08-11T11:33:04.352Z,100453.75
2023-08-11T11:35:32.710Z,100456.97
2023-08-11T11:38:00.431Z,100459.31
2023-08-11T11:40:30.476Z,100463.13
2023-08-11T11:42:58.648Z,100467.19
2023-08-11T11:45:27.514Z,100471.59
2023-08-11T11:47:56.455Z,100455.44
2023-08-11T11:50:24.677Z,100454.44
2023-08-11T11:52:52.311Z,100457.31
2023-08-11T11:55:19.981Z,100458.69
2023-08-11T11:57:49.003Z,100459.88
2023-08-11T12:00:20.259Z,100457.97
2023-08-11T12:02:48.814Z,100455.97
2023-08-11T12:05:16.381Z,100466.03
2023-08-11T12:07:44.326Z,100462.25
2023-08-11T12:10:12.835Z,100451.69
2023-08-11T12:12:40.538Z,100453.03
2023-08-11T12:15:08.876Z,100456.09
2023-08-11T12:17:37.793Z,100458.13
2023-08-11T12:20:07.913Z,100452.06
2023-08-11T12:22:35.609Z,100451.03
2023-08-11T12:25:04.465Z,100455.91
2023-08-11T12:27:32.065Z,100442.38
2023-08-11T12:29:59.664Z,100446.97
2023-08-11T12:32:27.605Z,100446.28
2023-08-11T12:34:55.516Z,100442.19
2023-08-11T12:37:23.254Z,100437.81
2023-08-11T12:39:51.105Z,100436.31
2023-08-11T12:42:18.949Z,100441.06
2023-08-11T12:44:47.608Z,100443.41
2023-08-11T12:47:15.549Z,100445.56
2023-08-11T12:49:43.166Z,100447.69
2023-08-11T12:52:11.408Z,100443.38
2023-08-11T12:54:39.588Z,100438.91
2023-08-11T12:57:07.226Z,100443.87
2023-08-11T12:59:34.905Z,100440.75
2023-08-11T13:02:02.905Z,100439.31
2023-08-11T13:04:30.564Z,100446.00
2023-08-11T13:07:00.792Z,100438.53
2023-08-11T13:09:29.004Z,100434.16
2023-08-11T13:11:57.045Z,100434.69
2023-08-11T13:14:24.563Z,100428.28
2023-08-11T13:16:52.665Z,100431.31
2023-08-11T13:19:21.230Z,100433.25
2023-08-11T13:21:48.948Z,100445.75
2023-08-11T13:24:19.937Z,100445.03
2023-08-11T13:26:48.703Z,100449.00
2023-08-11T13:29:16.266Z,100446.53
2023-08-11T13:31:44.074Z,100443.97
2023-08-11T13:34:11.582Z,100442.88
2023-08-11T13:36:40.898Z,100446.09
2023-08-11T13:39:10.206Z,100435.94
2023-08-11T13:41:38.168Z,100439.59
2023-08-11T13:44:05.940Z,100423.13
2023-08-11T13:46:33.883Z,100432.53
2023-08-11T13:49:01.555Z,100427.09
2023-08-11T13:51:29.257Z,100431.66
2023-08-11T13:53:57.572Z,100436.94
2023-08-11T13:56:25.104Z,100430.97
2023-08-11T13:58:52.681Z,100430.63
2023-08-11T14:01:20.675Z,100432.16
2023-08-11T14:03:48.879Z,100428.75
2023-08-11T14:06:17.164Z,100429.09
2023-08-11T14:08:47.812Z,100429.78
2023-08-11T14:11:16.831Z,100419.50
2023-08-11T14:13:46.049Z,100430.44
2023-08-11T14:16:13.993Z,100434.69
2023-08-11T14:18:45.172Z,100427.56
2023-08-11T14:21:14.195Z,100430.25
2023-08-11T14:23:42.148Z,100423.50
2023-08-11T14:26:10.093Z,100427.91
2023-08-11T14:28:39.466Z,100421.44
2023-08-11T14:31:13.824Z,100420.09
2023-08-11T14:33:42.531Z,100418.44
2023-08-11T14:36:13.378Z,100426.91
2023-08-11T14:38:41.680Z,100427.59
2023-08-11T14:41:09.271Z,100426.22
2023-08-11T14:43:37.510Z,100428.81
2023-08-11T14:46:04.996Z,100428.28
2023-08-11T14:48:32.452Z,100425.72
2023-08-11T14:51:00.509Z,100433.75
2023-08-11T14:53:30.512Z,100423.50
2023-08-11T14:55:58.075Z,100428.62
2023-08-11T14:58:26.263Z,100428.50
2023-08-11T15:00:54.638Z,100427.00
2023-08-11T15:03:23.682Z,100433.37
2023-08-11T15:05:51.732Z,100426.59
2023-08-11T15:08:19.508Z,100432.69
2023-08-11T15:10:47.037Z,100438.09
2023-08-11T15:13:17.107Z,100422.25
2023-08-11T15:15:44.891Z,100431.00
2023-08-11T15:18:13.962Z,100430.66
2023-08-11T15:20:42.225Z,100426.94
2023-08-11T15:23:09.781Z,100434.03
2023-08-11T15:25:38.145Z,100431.31
2023-08-11T15:28:06.648Z,100429.59
2023-08-11T15:30:34.202Z,100431.47
2023-08-11T15:33:02.000Z,100436.75
2023-08-11T15:35:32.098Z,100436.09
2023-08-11T15:37:59.643Z,100432.28
2023-08-11T15:40:27.368Z,100432.91
2023-08-11T15:42:55.655Z,100436.31
2023-08-11T15:45:23.407Z,100440.28
2023-08-11T15:47:51.020Z,100437.22
2023-08-11T15:50:19.373Z,100438.22
2023-08-11T15:52:46.987Z,100432.84
2023-08-11T15:55:17.030Z,100441.41
2023-08-11T15:57:46.393Z,100434.53
2023-08-11T16:00:14.450Z,100434.88
2023-08-11T16:02:42.647Z,100433.19
2023-08-11T16:05:11.101Z,100432.75
2023-08-11T16:07:38.770Z,100437.37
2023-08-11T16:10:07.320Z,100436.66
2023-08-11T16:12:34.897Z,100431.91
2023-08-11T16:15:06.712Z,100435.19
2023-08-11T16:17:35.413Z,100435.12
2023-08-11T16:20:03.133Z,100431.22
2023-08-11T16:22:35.010Z,100435.28
2023-08-11T16:25:03.375Z,100437.94
2023-08-11T16:27:34.538Z,100428.19
2023-08-11T16:30:02.600Z,100437.44
2023-08-11T16:32:32.158Z,100438.69
2023-08-11T16:35:00.360Z,100437.00
2023-08-11T16:37:28.297Z,100438.69
2023-08-11T16:39:56.105Z,100438.00
2023-08-11T16:42:24.523Z,100437.13
2023-08-11T16:44:52.728Z,100437.53
2023-08-11T16:47:20.277Z,100440.75
2023-08-11T16:49:48.447Z,100436.75
2023-08-11T16:52:16.250Z,100444.06
2023-08-11T16:54:48.257Z,100437.59
2023-08-11T16:57:17.470Z,100444.34
2023-08-11T16:59:46.129Z,100440.44
2023-08-11T17:02:16.789Z,100447.06
2023-08-11T17:04:44.738Z,100444.16
2023-08-11T17:07:12.307Z,100446.44
2023-08-11T17:09:40.163Z,100448.28
2023-08-11T17:12:09.213Z,100453.72
2023-08-11T17:14:37.239Z,100455.31
2023-08-11T17:17:04.970Z,100451.59
2023-08-11T17:19:33.031Z,100447.91
2023-08-11T17:22:01.208Z,100451.53
2023-08-11T17:24:28.921Z,100452.25
2023-08-11T17:26:56.800Z,100454.88
2023-08-11T17:29:24.363Z,100456.97
2023-08-11T17:31:51.949Z,100454.41
2023-08-11T17:34:19.845Z,100457.59
2023-08-11T17:36:47.907Z,100459.59
2023-08-11T17:39:15.716Z,100461.00
2023-08-11T17:41:46.817Z,100468.56
2023-08-11T17:44:14.937Z,100474.19
2023-08-11T17:46:43.101Z,100466.09
2023-08-11T17:49:10.770Z,100464.75
2023-08-11T17:51:38.474Z,100472.13
2023-08-11T17:54:09.704Z,100472.16
2023-08-11T17:56:38.679Z,100470.31
2023-08-11T17:59:07.405Z,100482.28
2023-08-11T18:01:35.075Z,100483.44
2023-08-11T18:04:07.459Z,100480.22
2023-08-11T18:06:36.255Z,100481.63
2023-08-11T18:09:04.987Z,100486.34
2023-08-11T18:11:34.888Z,100488.63
2023-08-11T18:14:02.718Z,100486.62
2023-08-11T18:16:30.788Z,100493.16
2023-08-11T18:18:59.905Z,100499.97
2023-08-11T18:21:27.600Z,100497.66
2023-08-11T18:23:55.803Z,100500.50
2023-08-11T18:26:23.524Z,100508.94
2023-08-11T18:41:13.155Z,100509.41
2023-08-11T18:43:42.565Z,100509.41
2023-08-11T18:46:10.299Z,100525.78
2023-08-11T18:48:38.135Z,100523.94
2023-08-11T18:51:07.181Z,100529.47
2023-08-11T18:53:34.854Z,100535.63
2023-08-11T18:56:02.418Z,100530.78
2023-08-11T18:58:31.551Z,100544.16
2023-08-11T19:01:00.094Z,100536.19
2023-08-11T19:03:27.931Z,100546.47
2023-08-11T19:05:59.540Z,100543.19
2023-08-11T19:08:27.861Z,100542.88
2023-08-11T19:10:56.190Z,100547.22
2023-08-11T19:13:24.423Z,100540.69
2023-08-11T19:15:52.088Z,100545.47
2023-08-11T19:18:22.792Z,100552.63
2023-08-11T19:20:50.404Z,100547.75
2023-08-11T19:23:18.234Z,100555.91
2023-08-11T19:25:46.717Z,100554.19
2023-08-11T19:28:14.349Z,100550.91
2023-08-11T19:30:42.345Z,100555.34
2023-08-11T19:33:10.388Z,100545.03
2023-08-11T19:35:38.706Z,100545.53
2023-08-11T19:38:06.694Z,100547.09
2023-08-11T19:40:34.814Z,100550.78
2023-08-11T19:43:03.483Z,100544.41
2023-08-11T19:45:32.222Z,100548.09
2023-08-11T19:48:00.555Z,100555.03
2023-08-11T19:50:28.213Z,100557.38
2023-08-11T19:52:56.621Z,100558.84
2023-08-11T19:55:24.664Z,100553.69
2023-08-11T19:57:52.229Z,100557.09
2023-08-11T20:02:48.507Z,100562.13
2023-08-11T20:05:17.037Z,100558.53
2023-08-11T20:07:44.799Z,100561.50
2023-08-11T20:10:13.129Z,100555.13
2023-08-11T20:12:41.011Z,100559.28
2023-08-11T20:15:10.005Z,100544.12
2023-08-11T20:17:38.415Z,100548.53
2023-08-11T20:20:06.501Z,100553.50
2023-08-11T20:22:34.134Z,100551.78
2023-08-11T20:25:02.143Z,100549.47
2023-08-11T20:27:29.806Z,100546.53
2023-08-11T20:29:58.124Z,100555.22
2023-08-11T20:32:26.177Z,100552.41
2023-08-11T20:34:53.703Z,100552.03
2023-08-11T20:37:22.234Z,100553.34
2023-08-11T20:39:50.210Z,100554.69
2023-08-11T20:42:17.805Z,100550.94
2023-08-11T20:44:45.843Z,100554.31
2023-08-11T20:47:14.149Z,100545.75
2023-08-11T20:49:42.312Z,100552.91
2023-08-11T20:52:09.953Z,100555.75
2023-08-11T20:54:37.881Z,100552.22
2023-08-11T20:57:05.475Z,100556.38
2023-08-11T20:59:33.581Z,100558.94
2023-08-11T21:02:01.612Z,100555.16
2023-08-11T21:04:29.440Z,100564.78
2023-08-11T21:06:57.166Z,100561.09
2023-08-11T21:09:25.683Z,100562.19
2023-08-11T21:11:53.735Z,100555.09
2023-08-11T21:14:21.345Z,100563.16
2023-08-11T21:16:50.557Z,100560.78
2023-08-11T21:19:18.319Z,100556.72
2023-08-11T21:21:46.339Z,100557.25
2023-08-11T21:24:15.180Z,100557.44
2023-08-11T21:26:42.725Z,100556.53
2023-08-11T21:29:10.262Z,100552.22
2023-08-11T21:31:38.336Z,100555.16
2023-08-11T21:34:07.195Z,100552.56
2023-08-11T21:36:35.414Z,100552.59
2023-08-11T21:39:06.341Z,100556.53
2023-08-11T21:41:34.801Z,100554.91
2023-08-11T21:44:06.586Z,100559.78
2023-08-11T21:46:34.548Z,100555.41
2023-08-11T21:49:02.227Z,100562.87
2023-08-11T21:51:30.226Z,100556.25
2023-08-11T21:53:58.692Z,100564.62
2023-08-11T21:56:26.515Z,100565.25
2023-08-11T21:58:54.252Z,100560.13
2023-08-11T22:01:22.610Z,100560.62
2023-08-11T22:03:50.951Z,100564.16
2023-08-11T22:06:18.525Z,100569.13
2023-08-11T22:08:46.024Z,100567.50
2023-08-11T22:11:26.029Z,100563.44
2023-08-11T22:14:01.996Z,100564.28
2023-08-11T22:16:30.835Z,100571.91
2023-08-11T22:18:59.165Z,100560.06
2023-08-11T22:21:36.741Z,100556.63
2023-08-11T22:24:34.583Z,100559.16
2023-08-11T22:27:17.407Z,100565.22
2023-08-11T22:30:06.178Z,100556.16
2023-08-11T22:32:51.532Z,100549.97
2023-08-11T22:35:24.835Z,100560.78
2023-08-11T22:37:54.318Z,100549.09
2023-08-11T22:40:41.876Z,100556.59
2023-08-11T22:43:27.951Z,100559.37
2023-08-11T22:45:55.852Z,100562.81
2023-08-11T22:48:28.647Z,100556.91
2023-08-11T22:51:41.254Z,100558.53
2023-08-11T22:54:09.349Z,100562.69
2023-08-11T22:56:37.908Z,100559.34
2023-08-11T22:59:06.013Z,100560.75
2023-08-11T23:01:33.920Z,100550.66
2023-08-11T23:04:01.535Z,100563.25
2023-08-11T23:06:29.257Z,100555.44
2023-08-11T23:08:57.256Z,100554.12
2023-08-11T23:11:24.933Z,100562.69
2023-08-11T23:13:52.545Z,100562.50
2023-08-11T23:16:21.559Z,100562.50
2023-08-11T23:18:49.771Z,100567.84
2023-08-11T23:21:17.422Z,100559.16
2023-08-11T23:23:45.298Z,100562.28
2023-08-11T23:26:15.582Z,100557.22
2023-08-11T23:28:43.491Z,100565.59
2023-08-11T23:31:12.256Z,100568.03
2023-08-11T23:33:39.837Z,100562.03
2023-08-11T23:36:07.517Z,100558.81
2023-08-11T23:38:36.491Z,100557.28
2023-08-11T23:41:04.386Z,100561.00
2023-08-11T23:43:31.872Z,100556.25
2023-08-11T23:45:59.884Z,100564.16
2023-08-11T23:48:27.685Z,100561.97
2023-08-11T23:50:55.337Z,100551.81
2023-08-11T23:53:23.920Z,100555.19
2023-08-11T23:55:52.112Z,100556.69
2023-08-11T23:58:20.088Z,100556.78
